Time;durP1;ratioP1;P1;durP2;ratioP2;P2;SDS_P1;SDS_P2;PMS_P1;PMS_P2;Temp;Humidity;BMP_temperature;BMP_pressure;BME280_temperature;BME280_humidity;BME280_pressure;Samples;Min_cycle;Max_cycle;Signal;HPM_P1;HPM_P2
2022/08/24 00:02:25;;;;;;;3.35;2.83;;;;;;;;;;4934186;29;20439;-72
2022/08/24 00:04:52;;;;;;;4.13;2.72;;;;;;;;;;4934401;29;20051;-72
2022/08/24 00:07:20;;;;;;;4.32;3.22;;;;;;;;;;4934280;29;20062;-71
2022/08/24 00:09:53;;;;;;;3.58;3.28;;;;;;;;;;4934148;29;20055;-72
2022/08/24 00:12:20;;;;;;;7.47;3.38;;;;;;;;;;4934022;29;20532;-72
2022/08/24 00:14:47;;;;;;;5.22;2.85;;;;;;;;;;4933808;29;20055;-71
2022/08/24 00:17:15;;;;;;;4.78;3.10;;;;;;;;;;4934254;29;20130;-71
2022/08/24 00:19:42;;;;;;;3.92;2.90;;;;;;;;;;4934275;29;20543;-71
2022/08/24 00:22:09;;;;;;;4.00;3.50;;;;;;;;;;4934327;29;20062;-71
2022/08/24 00:24:36;;;;;;;3.88;3.20;;;;;;;;;;4917445;29;20058;-72
2022/08/24 00:27:04;;;;;;;3.58;3.00;;;;;;;;;;4937381;29;20048;-72
2022/08/24 00:29:31;;;;;;;3.72;3.20;;;;;;;;;;4920232;29;20047;-72
2022/08/24 00:31:58;;;;;;;4.18;3.10;;;;;;;;;;4937637;29;20432;-72
2022/08/24 00:34:26;;;;;;;3.45;3.03;;;;;;;;;;4920719;29;20459;-72
2022/08/24 00:36:53;;;;;;;3.42;3.10;;;;;;;;;;4937359;29;20051;-71
2022/08/24 00:39:20;;;;;;;3.47;3.17;;;;;;;;;;4920202;29;20058;-71
2022/08/24 00:41:49;;;;;;;6.13;3.30;;;;;;;;;;4937129;29;20052;-71
2022/08/24 00:44:16;;;;;;;4.57;3.38;;;;;;;;;;4937440;29;20055;-71
2022/08/24 00:46:55;;;;;;;3.17;2.78;;;;;;;;;;4937242;29;20052;-71
2022/08/24 00:49:36;;;;;;;4.50;3.13;;;;;;;;;;4920100;29;20427;-71
2022/08/24 00:52:09;;;;;;;3.45;3.15;;;;;;;;;;4921406;29;20052;-71
2022/08/24 00:54:38;;;;;;;6.45;3.72;;;;;;;;;;4920480;29;20080;-71
2022/08/24 00:57:12;;;;;;;5.20;3.53;;;;;;;;;;4936960;29;20047;-71
2022/08/24 00:59:54;;;;;;;4.13;3.30;;;;;;;;;;4904139;29;20058;-71
2022/08/24 01:02:24;;;;;;;4.28;3.78;;;;;;;;;;4921926;29;20059;-71
2022/08/24 01:04:57;;;;;;;4.38;3.70;;;;;;;;;;4888888;29;20051;-72
2022/08/24 01:07:24;;;;;;;;;;;;;;;;;;4937356;29;20404;-71
2022/08/24 01:09:52;;;;;;;6.72;3.92;;;;;;;;;;4936695;29;19922;-71
2022/08/24 01:12:18;;;;;;;3.53;3.22;;;;;;;;;;4904182;29;20056;-71
2022/08/24 01:14:45;;;;;;;6.70;3.58;;;;;;;;;;4936568;29;20052;-71
2022/08/24 01:20:06;;;;;;;5.97;3.88;;;;;;;;;;4936562;29;20138;-72
2022/08/24 01:22:48;;;;;;;6.20;3.53;;;;;;;;;;4919823;29;20055;-72
2022/08/24 01:25:15;;;;;;;6.38;4.10;;;;;;;;;;4936300;29;20559;-72
2022/08/24 01:27:42;;;;;;;4.57;3.80;;;;;;;;;;4936552;29;20062;-73
2022/08/24 01:30:12;;;;;;;5.05;4.03;;;;;;;;;;4904117;29;20062;-72
2022/08/24 01:32:40;;;;;;;4.35;3.88;;;;;;;;;;4919508;29;20066;-71
2022/08/24 01:35:07;;;;;;;5.18;4.53;;;;;;;;;;4936141;29;20050;-72
2022/08/24 01:37:34;;;;;;;7.15;4.15;;;;;;;;;;4935485;29;20048;-72
2022/08/24 01:40:04;;;;;;;4.43;4.03;;;;;;;;;;4919361;29;20055;-72
2022/08/24 01:42:33;;;;;;;7.10;4.45;;;;;;;;;;4919587;29;20059;-71
2022/08/24 01:45:04;;;;;;;5.43;4.60;;;;;;;;;;4936104;29;20454;-72
2022/08/24 01:47:31;;;;;;;5.93;4.65;;;;;;;;;;4935859;29;20055;-72
2022/08/24 01:49:58;;;;;;;7.55;4.30;;;;;;;;;;4935895;29;20051;-73
2022/08/24 01:52:25;;;;;;;5.43;4.15;;;;;;;;;;4903435;29;20526;-72
2022/08/24 01:55:00;;;;;;;4.63;4.22;;;;;;;;;;4935824;29;20091;-71
2022/08/24 01:57:27;;;;;;;5.57;4.45;;;;;;;;;;4935720;29;20410;-71
2022/08/24 01:59:54;;;;;;;5.45;4.38;;;;;;;;;;4935657;29;20318;-71
2022/08/24 02:02:26;;;;;;;4.72;4.20;;;;;;;;;;4935882;29;20055;-71
2022/08/24 02:04:53;;;;;;;5.67;4.30;;;;;;;;;;4903560;29;20087;-71
2022/08/24 02:07:19;;;;;;;4.53;4.13;;;;;;;;;;4935376;29;20285;-71
2022/08/24 02:09:46;;;;;;;4.55;3.53;;;;;;;;;;4935886;29;20268;-72
2022/08/24 02:12:13;;;;;;;5.85;3.90;;;;;;;;;;4935596;29;20079;-72
2022/08/24 02:14:40;;;;;;;8.27;4.47;;;;;;;;;;4919017;29;20059;-72
2022/08/24 02:17:08;;;;;;;5.88;4.50;;;;;;;;;;4935292;29;20519;-71
2022/08/24 02:19:35;;;;;;;4.40;3.63;;;;;;;;;;4935626;29;20426;-71
2022/08/24 02:22:02;;;;;;;4.18;3.83;;;;;;;;;;4935414;29;20063;-72
2022/08/24 02:24:29;;;;;;;5.97;4.00;;;;;;;;;;4936031;29;20558;-72
2022/08/24 02:26:56;;;;;;;5.32;4.22;;;;;;;;;;4935338;29;20044;-72
2022/08/24 02:29:23;;;;;;;4.95;4.13;;;;;;;;;;4935051;29;20081;-72
2022/08/24 02:31:50;;;;;;;5.78;4.28;;;;;;;;;;4935131;29;20051;-72
2022/08/24 02:34:16;;;;;;;8.45;4.75;;;;;;;;;;4935091;29;20115;-72
2022/08/24 02:36:43;;;;;;;5.45;4.18;;;;;;;;;;4935282;29;20070;-72
2022/08/24 02:39:10;;;;;;;5.03;4.57;;;;;;;;;;4918352;29;20074;-72
2022/08/24 02:41:37;;;;;;;4.70;3.92;;;;;;;;;;4935196;29;20408;-72
2022/08/24 02:44:04;;;;;;;5.78;4.53;;;;;;;;;;4935203;29;20048;-72
2022/08/24 02:46:30;;;;;;;7.38;4.57;;;;;;;;;;4935030;29;20052;-72
2022/08/24 02:48:58;;;;;;;5.00;4.50;;;;;;;;;;4934130;29;20491;-72
2022/08/24 02:51:40;;;;;;;6.85;4.57;;;;;;;;;;4935137;29;20056;-72
2022/08/24 02:54:11;;;;;;;5.45;4.68;;;;;;;;;;4934961;29;20051;-72
2022/08/24 02:56:38;;;;;;;4.88;4.32;;;;;;;;;;4934801;29;20073;-74
2022/08/24 02:59:05;;;;;;;6.13;4.50;;;;;;;;;;4934533;29;20047;-71
2022/08/24 03:01:32;;;;;;;7.22;4.65;;;;;;;;;;4934697;29;20058;-71
2022/08/24 03:03:58;;;;;;;5.40;4.50;;;;;;;;;;4934955;29;20423;-71
2022/08/24 03:06:25;;;;;;;5.68;4.10;;;;;;;;;;4935069;29;20055;-71
2022/08/24 03:08:52;;;;;;;5.57;4.97;;;;;;;;;;4934398;29;20138;-71
2022/08/24 03:11:22;;;;;;;5.53;4.80;;;;;;;;;;4918442;29;20106;-71
2022/08/24 03:13:54;;;;;;;5.38;4.63;;;;;;;;;;4934711;29;20087;-72
2022/08/24 03:16:21;;;;;;;5.15;4.65;;;;;;;;;;4934989;29;20056;-72
2022/08/24 03:18:48;;;;;;;5.30;4.85;;;;;;;;;;4934297;29;20052;-72
2022/08/24 03:21:16;;;;;;;4.63;4.22;;;;;;;;;;4918041;29;20442;-72
2022/08/24 03:23:43;;;;;;;4.97;4.57;;;;;;;;;;4934693;29;20063;-72
2022/08/24 03:26:10;;;;;;;6.13;4.78;;;;;;;;;;4934540;29;20070;-72
2022/08/24 03:28:37;;;;;;;5.03;4.25;;;;;;;;;;4917320;29;20094;-72
2022/08/24 03:31:04;;;;;;;6.28;4.72;;;;;;;;;;4934791;29;20052;-72
2022/08/24 03:33:31;;;;;;;5.40;4.50;;;;;;;;;;4918031;29;20426;-71
2022/08/24 03:35:57;;;;;;;6.45;4.25;;;;;;;;;;4934396;29;20052;-72
2022/08/24 03:38:24;;;;;;;4.78;4.38;;;;;;;;;;4934108;29;20059;-72
2022/08/24 03:40:50;;;;;;;5.22;4.35;;;;;;;;;;4934046;29;20067;-72
2022/08/24 03:46:06;;;;;;;4.95;4.40;;;;;;;;;;4934826;29;20057;-72
2022/08/24 03:48:33;;;;;;;5.57;4.10;;;;;;;;;;4934199;29;20118;-72
2022/08/24 03:51:00;;;;;;;4.63;4.22;;;;;;;;;;4934282;29;20052;-72
2022/08/24 03:53:27;;;;;;;5.35;4.80;;;;;;;;;;4934085;29;20449;-72
2022/08/24 03:55:53;;;;;;;5.50;4.22;;;;;;;;;;4934443;29;20056;-72
2022/08/24 03:58:20;;;;;;;8.93;4.55;;;;;;;;;;4934259;29;20055;-72
2022/08/24 04:00:47;;;;;;;5.75;4.72;;;;;;;;;;4936481;29;20052;-72
2022/08/24 04:03:13;;;;;;;5.88;4.68;;;;;;;;;;4937756;29;20110;-72
2022/08/24 04:05:41;;;;;;;5.10;4.57;;;;;;;;;;4937848;29;20110;-72
2022/08/24 04:08:08;;;;;;;6.10;4.53;;;;;;;;;;4937535;29;20054;-72
2022/08/24 04:10:34;;;;;;;5.45;4.90;;;;;;;;;;4937914;29;20491;-72
2022/08/24 04:13:01;;;;;;;6.38;4.82;;;;;;;;;;4937947;29;20467;-72
2022/08/24 04:15:30;;;;;;;6.43;5.40;;;;;;;;;;4937497;29;20052;-72
2022/08/24 04:17:57;;;;;;;6.63;4.65;;;;;;;;;;4937339;29;20057;-72
2022/08/24 04:20:24;;;;;;;5.22;4.63;;;;;;;;;;4937589;29;20430;-72
2022/08/24 04:22:51;;;;;;;7.75;4.95;;;;;;;;;;4937303;29;20058;-73
2022/08/24 04:25:19;;;;;;;9.68;5.05;;;;;;;;;;4926986;29;20051;-72
2022/08/24 04:27:50;;;;;;;6.55;4.90;;;;;;;;;;4937516;29;20051;-72
2022/08/24 04:30:17;;;;;;;7.35;4.75;;;;;;;;;;4937408;29;20051;-72
2022/08/24 04:32:44;;;;;;;7.72;4.82;;;;;;;;;;4917824;29;20114;-72
2022/08/24 04:35:11;;;;;;;5.20;4.60;;;;;;;;;;4931777;29;20460;-73
2022/08/24 04:37:38;;;;;;;8.20;5.20;;;;;;;;;;4918421;29;20052;-72
2022/08/24 04:40:06;;;;;;;8.32;4.82;;;;;;;;;;4916997;29;20052;-72
2022/08/24 04:42:34;;;;;;;7.47;4.95;;;;;;;;;;4918446;29;20052;-72
2022/08/24 04:45:03;;;;;;;6.40;5.00;;;;;;;;;;4908389;29;20079;-72
2022/08/24 04:47:30;;;;;;;6.18;4.90;;;;;;;;;;4925326;29;20467;-72
2022/08/24 04:49:59;;;;;;;5.75;4.68;;;;;;;;;;4925994;29;20087;-72
2022/08/24 04:52:26;;;;;;;6.30;5.28;;;;;;;;;;4931681;29;20058;-73
2022/08/24 04:54:53;;;;;;;5.00;4.50;;;;;;;;;;4891391;29;20056;-73
2022/08/24 04:57:20;;;;;;;5.53;4.90;;;;;;;;;;4917968;29;20427;-73
2022/08/24 04:59:48;;;;;;;7.07;5.25;;;;;;;;;;4918221;29;20487;-74
2022/08/24 05:02:15;;;;;;;5.32;4.35;;;;;;;;;;4917921;29;20508;-73
2022/08/24 05:04:42;;;;;;;5.45;4.95;;;;;;;;;;4917978;29;20504;-74
2022/08/24 05:07:09;;;;;;;7.53;5.38;;;;;;;;;;4932002;29;20047;-73
2022/08/24 05:09:36;;;;;;;7.63;5.50;;;;;;;;;;4936759;29;20056;-73
2022/08/24 05:12:03;;;;;;;7.50;4.90;;;;;;;;;;4928627;29;20411;-73
2022/08/24 05:14:30;;;;;;;5.78;4.80;;;;;;;;;;4925570;29;20048;-73
2022/08/24 05:16:57;;;;;;;5.13;4.72;;;;;;;;;;4916242;29;20083;-73
2022/08/24 05:19:23;;;;;;;5.65;5.05;;;;;;;;;;4917396;29;20407;-74
2022/08/24 05:21:50;;;;;;;6.28;4.75;;;;;;;;;;4926134;29;20058;-74
2022/08/24 05:24:18;;;;;;;7.85;5.25;;;;;;;;;;4936335;29;20059;-72
2022/08/24 05:26:45;;;;;;;6.38;4.63;;;;;;;;;;4917166;29;20044;-68
2022/08/24 05:29:13;;;;;;;5.07;4.68;;;;;;;;;;4917865;29;20051;-68
2022/08/24 05:31:42;;;;;;;5.63;4.75;;;;;;;;;;4917280;29;20048;-68
2022/08/24 05:34:09;;;;;;;5.10;4.32;;;;;;;;;;4934282;29;20404;-68
2022/08/24 05:36:37;;;;;;;5.10;4.60;;;;;;;;;;4933906;29;20574;-68
2022/08/24 05:39:09;;;;;;;7.63;4.03;;;;;;;;;;4933554;29;20545;-68
2022/08/24 05:41:38;;;;;;;7.95;4.43;;;;;;;;;;4933369;29;20051;-68
2022/08/24 05:44:11;;;;;;;5.47;4.50;;;;;;;;;;4933914;29;20138;-68
2022/08/24 05:46:37;;;;;;;9.48;4.38;;;;;;;;;;4933959;29;20070;-68
2022/08/24 05:49:04;;;;;;;4.57;4.18;;;;;;;;;;4933549;29;20059;-68
2022/08/24 05:51:31;;;;;;;5.97;5.15;;;;;;;;;;4933799;29;20074;-68
2022/08/24 05:53:59;;;;;;;5.18;4.75;;;;;;;;;;4933264;29;20113;-67
2022/08/24 05:56:26;;;;;;;7.20;4.70;;;;;;;;;;4933664;29;20070;-68
2022/08/24 05:58:57;;;;;;;6.88;5.13;;;;;;;;;;4933808;29;20055;-67
2022/08/24 06:01:24;;;;;;;5.72;4.60;;;;;;;;;;4933653;29;20059;-68
2022/08/24 06:03:52;;;;;;;4.80;4.40;;;;;;;;;;4933368;29;20503;-69
2022/08/24 06:06:20;;;;;;;7.22;4.70;;;;;;;;;;4933067;29;20052;-67
2022/08/24 06:08:48;;;;;;;5.43;4.72;;;;;;;;;;4933050;29;20116;-67
2022/08/24 06:11:29;;;;;;;4.80;4.20;;;;;;;;;;4933327;29;20059;-67
2022/08/24 06:14:02;;;;;;;6.30;4.35;;;;;;;;;;4933574;29;20054;-68
2022/08/24 06:16:36;;;;;;;4.82;4.20;;;;;;;;;;4933365;29;20103;-68
2022/08/24 06:19:03;;;;;;;4.65;4.25;;;;;;;;;;4916230;29;20047;-66
2022/08/24 06:21:31;;;;;;;7.00;3.67;;;;;;;;;;4932542;29;20043;-68
2022/08/24 06:23:58;;;;;;;4.82;3.28;;;;;;;;;;4932755;29;20392;-67
2022/08/24 06:29:16;;;;;;;3.55;2.78;;;;;;;;;;4932922;29;20134;-67
2022/08/24 06:31:44;;;;;;;4.03;2.90;;;;;;;;;;4933092;29;20106;-67
2022/08/24 06:34:13;;;;;;;4.25;3.03;;;;;;;;;;4932577;29;20126;-67
2022/08/24 06:36:40;;;;;;;5.40;3.10;;;;;;;;;;4900652;29;20055;-67
2022/08/24 06:39:08;;;;;;;5.95;3.10;;;;;;;;;;4932620;29;20059;-68
2022/08/24 06:41:39;;;;;;;4.13;3.00;;;;;;;;;;4933042;29;20159;-68
2022/08/24 06:44:06;;;;;;;6.78;2.90;;;;;;;;;;4933022;29;20496;-67
2022/08/24 06:46:35;;;;;;;7.18;3.50;;;;;;;;;;4915394;29;20136;-68
2022/08/24 06:49:02;;;;;;;4.32;2.88;;;;;;;;;;4932437;29;20073;-67
2022/08/24 06:51:31;;;;;;;6.40;3.05;;;;;;;;;;4933004;29;20103;-67
2022/08/24 06:53:57;;;;;;;4.00;2.95;;;;;;;;;;4933022;29;20066;-67
2022/08/24 06:56:24;;;;;;;3.53;2.67;;;;;;;;;;4932777;29;20503;-67
2022/08/24 06:58:51;;;;;;;3.63;3.25;;;;;;;;;;4932015;29;20048;-68
2022/08/24 07:01:20;;;;;;;3.83;2.97;;;;;;;;;;4932618;29;20051;-68
2022/08/24 07:03:47;;;;;;;6.68;3.83;;;;;;;;;;4932615;29;20090;-68
2022/08/24 07:06:14;;;;;;;8.30;3.25;;;;;;;;;;4932817;29;20062;-67
2022/08/24 07:08:41;;;;;;;10.10;3.75;;;;;;;;;;4933005;29;20054;-68
2022/08/24 07:11:08;;;;;;;5.57;3.13;;;;;;;;;;4932831;29;20056;-68
2022/08/24 07:13:35;;;;;;;5.65;3.67;;;;;;;;;;4932711;29;20499;-68
2022/08/24 07:16:03;;;;;;;3.88;3.10;;;;;;;;;;4933556;29;20051;-69
2022/08/24 07:18:31;;;;;;;4.95;3.08;;;;;;;;;;4932204;29;20060;-74
2022/08/24 07:21:01;;;;;;;5.68;3.10;;;;;;;;;;4920329;29;20069;-72
2022/08/24 07:23:29;;;;;;;4.65;3.03;;;;;;;;;;4933773;29;20087;-70
2022/08/24 07:26:10;;;;;;;5.38;3.13;;;;;;;;;;4931335;29;20057;-70
2022/08/24 07:28:50;;;;;;;4.22;2.78;;;;;;;;;;4933723;29;20062;-72
2022/08/24 07:31:17;;;;;;;5.25;2.50;;;;;;;;;;4937833;29;20054;-73
2022/08/24 07:33:44;;;;;;;2.90;2.40;;;;;;;;;;4928519;29;20052;-69
2022/08/24 07:36:11;;;;;;;2.53;2.20;;;;;;;;;;4926716;29;20063;-74
2022/08/24 07:38:50;;;;;;;2.25;2.05;;;;;;;;;;4913951;29;20510;-68
2022/08/24 07:41:19;;;;;;;3.88;2.40;;;;;;;;;;4932410;29;20055;-66
2022/08/24 07:44:07;;;;;;;2.83;2.15;;;;;;;;;;4930038;29;20059;-67
2022/08/24 07:46:34;;;;;;;4.00;1.85;;;;;;;;;;4932710;29;20054;-68
2022/08/24 07:49:00;;;;;;;2.33;1.50;;;;;;;;;;4928663;29;20055;-71
2022/08/24 07:51:38;;;;;;;4.65;2.30;;;;;;;;;;4915997;29;20055;-68
2022/08/24 07:54:11;;;;;;;2.60;1.75;;;;;;;;;;4934649;29;20471;-68
2022/08/24 07:56:40;;;;;;;2.67;2.10;;;;;;;;;;4933078;29;20058;-68
2022/08/24 07:59:06;;;;;;;3.75;1.90;;;;;;;;;;4933202;29;20047;-68
2022/08/24 08:01:38;;;;;;;2.70;2.00;;;;;;;;;;4933266;29;20074;-68
2022/08/24 08:04:05;;;;;;;2.67;1.70;;;;;;;;;;4934723;29;20109;-69
2022/08/24 08:06:32;;;;;;;1.80;1.70;;;;;;;;;;4932299;29;20055;-68
2022/08/24 08:08:58;;;;;;;2.60;2.20;;;;;;;;;;4931486;29;20052;-68
2022/08/24 08:11:25;;;;;;;5.00;2.58;;;;;;;;;;4933263;29;20071;-69
2022/08/24 08:13:53;;;;;;;3.17;1.70;;;;;;;;;;4930282;29;20055;-68
2022/08/24 08:16:20;;;;;;;3.55;1.73;;;;;;;;;;4932867;29;20495;-68
2022/08/24 08:18:47;;;;;;;1.60;1.50;;;;;;;;;;4933750;29;20056;-68
2022/08/24 08:24:16;;;;;;;4.10;1.60;;;;;;;;;;4930993;29;20051;-67
2022/08/24 08:26:50;;;;;;;3.35;2.15;;;;;;;;;;4933169;29;20082;-68
2022/08/24 08:29:18;;;;;;;2.25;1.67;;;;;;;;;;4930287;29;20507;-68
2022/08/24 08:31:45;;;;;;;3.20;1.60;;;;;;;;;;4933028;29;20052;-68
2022/08/24 08:34:12;;;;;;;4.20;1.60;;;;;;;;;;4933437;29;20442;-68
2022/08/24 08:36:39;;;;;;;2.85;1.65;;;;;;;;;;4933432;29;20059;-68
2022/08/24 08:39:07;;;;;;;2.13;1.70;;;;;;;;;;4931213;29;20055;-68
2022/08/24 08:41:49;;;;;;;4.45;1.67;;;;;;;;;;4933053;29;20546;-68
2022/08/24 08:44:32;;;;;;;2.88;1.50;;;;;;;;;;4933248;29;20056;-69
2022/08/24 08:47:18;;;;;;;5.13;1.27;;;;;;;;;;4931867;29;20052;-68
2022/08/24 08:49:58;;;;;;;1.83;1.55;;;;;;;;;;4915980;29;20059;-69
2022/08/24 08:52:47;;;;;;;4.10;1.90;;;;;;;;;;4917978;29;20051;-69
2022/08/24 08:55:26;;;;;;;3.55;1.63;;;;;;;;;;4932315;29;20131;-68
2022/08/24 08:58:21;;;;;;;4.28;1.90;;;;;;;;;;4917882;29;20051;-69
2022/08/24 09:01:00;;;;;;;5.47;1.75;;;;;;;;;;4932962;29;20086;-67
2022/08/24 09:03:51;;;;;;;3.10;1.80;;;;;;;;;;4931912;29;20052;-68
2022/08/24 09:06:36;;;;;;;4.05;1.90;;;;;;;;;;4917301;29;20052;-66
2022/08/24 09:09:12;;;;;;;4.25;1.40;;;;;;;;;;4931113;29;20051;-68
2022/08/24 09:11:50;;;;;;;2.13;1.52;;;;;;;;;;4933721;29;20054;-69
2022/08/24 09:14:42;;;;;;;2.70;1.60;;;;;;;;;;4933570;29;20058;-70
2022/08/24 09:17:39;;;;;;;4.40;1.55;;;;;;;;;;4932359;29;20055;-68
2022/08/24 09:20:18;;;;;;;2.58;1.60;;;;;;;;;;4932501;29;20056;-70
2022/08/24 09:22:47;;;;;;;3.35;2.10;;;;;;;;;;4917208;29;20082;-66
2022/08/24 09:25:19;;;;;;;2.60;1.50;;;;;;;;;;4911700;29;20514;-66
2022/08/24 09:28:38;;;;;;;2.60;1.80;;;;;;;;;;4914261;29;20051;-66
2022/08/24 09:31:35;;;;;;;2.65;1.70;;;;;;;;;;4910753;29;20052;-67
2022/08/24 09:34:27;;;;;;;2.80;1.38;;;;;;;;;;4929330;29;20048;-66
2022/08/24 09:37:03;;;;;;;3.10;1.65;;;;;;;;;;4930528;29;20058;-65
2022/08/24 09:39:57;;;;;;;2.25;1.55;;;;;;;;;;4932482;29;20534;-68
2022/08/24 09:42:49;;;;;;;2.72;1.35;;;;;;;;;;4933180;29;20059;-68
2022/08/24 09:45:31;;;;;;;1.33;1.23;;;;;;;;;;4930941;29;20541;-69
2022/08/24 09:48:12;;;;;;;1.70;1.30;;;;;;;;;;4930643;29;20440;-68
2022/08/24 09:51:00;;;;;;;2.15;1.20;;;;;;;;;;4929162;29;20091;-67
2022/08/24 09:54:18;;;;;;;1.40;1.20;;;;;;;;;;4931715;29;20131;-66
2022/08/24 09:56:47;;;;;;;2.22;1.70;;;;;;;;;;4833606;29;20152;-66
2022/08/24 09:59:56;;;;;;;1.23;1.13;;;;;;;;;;4848549;29;20409;-67
2022/08/24 10:02:36;;;;;;;1.20;1.10;;;;;;;;;;4921153;29;20052;-65
2022/08/24 10:05:25;;;;;;;4.15;1.40;;;;;;;;;;4913335;29;20079;-66
2022/08/24 10:08:04;;;;;;;1.05;1.00;;;;;;;;;;4928067;29;20075;-66
2022/08/24 10:10:37;;;;;;;2.92;1.02;;;;;;;;;;4930118;29;20080;-65
2022/08/24 10:13:24;;;;;;;2.55;1.00;;;;;;;;;;4929809;29;20060;-66
2022/08/24 10:16:01;;;;;;;2.78;1.30;;;;;;;;;;4915741;29;20059;-65
2022/08/24 10:18:43;;;;;;;1.35;0.90;;;;;;;;;;4931960;29;20522;-65
2022/08/24 10:21:14;;;;;;;1.05;1.02;;;;;;;;;;4931346;29;20161;-67
2022/08/24 10:24:18;;;;;;;2.13;1.10;;;;;;;;;;4930421;29;20060;-67
2022/08/24 10:27:08;;;;;;;2.55;1.00;;;;;;;;;;4914716;29;20407;-67
2022/08/24 10:29:38;;;;;;;1.20;0.90;;;;;;;;;;4914551;29;20062;-66
2022/08/24 10:32:43;;;;;;;4.13;1.60;;;;;;;;;;4912528;29;20052;-66
2022/08/24 10:35:13;;;;;;;1.35;1.20;;;;;;;;;;4928848;29;20052;-66
2022/08/24 10:39:39;;;;;;;1.02;0.90;;;;;;;;;;4915887;29;20055;-66
2022/08/24 10:41:04;;;;;;;1.88;1.20;;;;;;;;;;4918654;29;20052;-65
2022/08/24 10:43:37;;;;;;;1.15;1.05;;;;;;;;;;4892692;29;20090;-65
2022/08/24 10:46:04;;;;;;;;;;;;;;;;;;4931333;29;20435;-66
2022/08/24 10:48:31;;;;;;;1.33;1.20;;;;;;;;;;4931144;29;20382;-66
2022/08/24 10:51:38;;;;;;;2.28;1.75;;;;;;;;;;4930571;29;20082;-64
2022/08/24 10:54:06;;;;;;;2.65;1.20;;;;;;;;;;4930725;29;20043;-66
2022/08/24 10:56:49;;;;;;;2.38;1.17;;;;;;;;;;4899316;29;20066;-67
2022/08/24 10:59:18;;;;;;;1.83;1.27;;;;;;;;;;4914610;29;20044;-64
2022/08/24 11:02:05;;;;;;;2.70;1.17;;;;;;;;;;4929898;29;20424;-66
2022/08/24 11:04:39;;;;;;;1.52;1.10;;;;;;;;;;4930048;29;20067;-65
2022/08/24 11:07:19;;;;;;;2.95;1.23;;;;;;;;;;4930675;29;20055;-66
2022/08/24 11:10:00;;;;;;;1.80;1.02;;;;;;;;;;4930478;29;20058;-66
2022/08/24 11:12:42;;;;;;;1.65;1.10;;;;;;;;;;4931340;29;20074;-66
2022/08/24 11:15:19;;;;;;;2.03;1.35;;;;;;;;;;4915712;29;20047;-65
2022/08/24 11:17:57;;;;;;;2.47;1.30;;;;;;;;;;4930686;29;20063;-66
2022/08/24 11:20:45;;;;;;;1.73;1.40;;;;;;;;;;4926168;29;20051;-65
2022/08/24 11:23:16;;;;;;;1.60;1.20;;;;;;;;;;4931317;29;20055;-66
2022/08/24 11:26:20;;;;;;;1.35;1.25;;;;;;;;;;4914875;29;20076;-65
2022/08/24 11:28:51;;;;;;;1.50;1.10;;;;;;;;;;4906817;29;20056;-66
2022/08/24 11:31:33;;;;;;;1.60;1.15;;;;;;;;;;4930667;29;20059;-66
2022/08/24 11:34:18;;;;;;;1.15;1.05;;;;;;;;;;4913164;29;20055;-65
2022/08/24 11:36:44;;;;;;;1.90;1.00;;;;;;;;;;4916120;29;20067;-66
2022/08/24 11:39:30;;;;;;;3.47;1.23;;;;;;;;;;4910219;29;20054;-65
2022/08/24 11:42:06;;;;;;;2.65;1.25;;;;;;;;;;4928685;29;20056;-65
2022/08/24 11:44:48;;;;;;;0.90;0.90;;;;;;;;;;4930509;29;20693;-64
2022/08/24 11:47:41;;;;;;;;;;;;;;;;;;4930309;29;20522;-65
2022/08/24 11:50:14;;;;;;;1.45;1.35;;;;;;;;;;4927267;29;19978;-66
2022/08/24 11:52:46;;;;;;;1.13;1.00;;;;;;;;;;4930300;29;20055;-65
2022/08/24 11:55:35;;;;;;;2.25;1.40;;;;;;;;;;4927151;29;20412;-66
2022/08/24 11:58:33;;;;;;;1.27;1.10;;;;;;;;;;4927969;29;20139;-66
2022/08/24 12:01:04;;;;;;;1.40;1.30;;;;;;;;;;4912791;29;20068;-64
2022/08/24 12:03:57;;;;;;;1.20;1.10;;;;;;;;;;4930781;29;20439;-65
2022/08/24 12:06:56;;;;;;;1.70;1.00;;;;;;;;;;4918085;28;20044;-64
2022/08/24 12:09:38;;;;;;;1.10;1.10;;;;;;;;;;4919449;29;20065;-66
2022/08/24 12:12:20;;;;;;;1.63;1.30;;;;;;;;;;4929698;29;20056;-66
2022/08/24 12:14:59;;;;;;;2.20;1.02;;;;;;;;;;4912334;29;20423;-66
2022/08/24 12:18:05;;;;;;;1.33;1.13;;;;;;;;;;4900816;29;20504;-66
2022/08/24 12:20:38;;;;;;;1.30;1.00;;;;;;;;;;4904774;29;20056;-66
2022/08/24 12:23:15;;;;;;;1.35;1.13;;;;;;;;;;4905282;29;20051;-66
2022/08/24 12:26:00;;;;;;;1.23;1.13;;;;;;;;;;4917605;29;20484;-66
2022/08/24 12:28:33;;;;;;;2.58;1.10;;;;;;;;;;4920489;29;20044;-65
2022/08/24 12:31:07;;;;;;;1.35;1.23;;;;;;;;;;4905808;29;20067;-65
2022/08/24 12:33:35;;;;;;;2.10;1.20;;;;;;;;;;4905775;29;20056;-66
2022/08/24 12:36:06;;;;;;;1.30;1.20;;;;;;;;;;4905234;29;20130;-66
2022/08/24 12:38:39;;;;;;;1.42;1.00;;;;;;;;;;4920613;29;20070;-65
2022/08/24 12:41:23;;;;;;;1.48;0.95;;;;;;;;;;4920565;29;20052;-66
2022/08/24 12:44:08;;;;;;;2.92;1.00;;;;;;;;;;4905356;29;20063;-66
2022/08/24 12:46:34;;;;;;;4.53;1.50;;;;;;;;;;4907265;29;20059;-66
2022/08/24 12:49:18;;;;;;;1.77;1.30;;;;;;;;;;4936672;29;20048;-65
2022/08/24 12:52:03;;;;;;;1.58;1.20;;;;;;;;;;4924951;29;20059;-66
2022/08/24 12:54:35;;;;;;;3.38;1.15;;;;;;;;;;4927752;29;20594;-65
2022/08/24 12:57:14;;;;;;;2.70;1.10;;;;;;;;;;4955749;28;20055;-67
2022/08/24 12:59:48;;;;;;;2.13;1.20;;;;;;;;;;4938861;29;20086;-66
2022/08/24 13:02:17;;;;;;;1.05;0.95;;;;;;;;;;4939230;29;20070;-66
2022/08/24 13:04:47;;;;;;;1.40;1.30;;;;;;;;;;4955855;29;20134;-66
2022/08/24 13:07:22;;;;;;;1.15;0.93;;;;;;;;;;4939564;29;20048;-65
2022/08/24 13:09:52;;;;;;;1.20;1.10;;;;;;;;;;4936377;29;20059;-66
2022/08/24 13:12:37;;;;;;;0.82;0.82;;;;;;;;;;4936826;29;20047;-66
2022/08/24 13:15:25;;;;;;;2.63;1.20;;;;;;;;;;4930326;29;20648;-65
2022/08/24 13:18:05;;;;;;;2.35;1.05;;;;;;;;;;4934605;29;20064;-65
2022/08/24 13:20:35;;;;;;;1.75;1.20;;;;;;;;;;4929487;29;20483;-66
2022/08/24 13:23:11;;;;;;;3.30;1.85;;;;;;;;;;4933813;29;20055;-64
2022/08/24 13:25:50;;;;;;;1.48;1.00;;;;;;;;;;4935075;29;20044;-65
2022/08/24 13:28:19;;;;;;;2.03;1.20;;;;;;;;;;4932989;29;20052;-65
2022/08/24 13:30:52;;;;;;;1.55;1.33;;;;;;;;;;4934104;29;20103;-66
2022/08/24 13:33:38;;;;;;;1.88;1.20;;;;;;;;;;4928881;29;20099;-66
2022/08/24 13:36:43;;;;;;;1.40;1.30;;;;;;;;;;4933600;29;20052;-66
2022/08/24 13:39:38;;;;;;;0.93;0.93;;;;;;;;;;4934357;29;20044;-65
2022/08/24 13:42:13;;;;;;;1.95;1.55;;;;;;;;;;4931268;29;20051;-65
2022/08/24 13:44:49;;;;;;;3.55;1.20;;;;;;;;;;4927519;29;20124;-65
2022/08/24 13:47:29;;;;;;;1.85;1.15;;;;;;;;;;4929713;29;20047;-64
2022/08/24 13:50:00;;;;;;;1.48;1.10;;;;;;;;;;4933305;29;20074;-66
2022/08/24 13:52:30;;;;;;;1.38;1.00;;;;;;;;;;4934336;29;20059;-66
2022/08/24 13:55:30;;;;;;;3.63;1.33;;;;;;;;;;4916441;29;20106;-65
2022/08/24 13:58:18;;;;;;;1.50;1.23;;;;;;;;;;4933449;29;20074;-67
2022/08/24 14:01:05;;;;;;;6.05;1.20;;;;;;;;;;4916170;29;20051;-67
2022/08/24 14:04:08;;;;;;;1.55;1.20;;;;;;;;;;4901454;29;20051;-67
2022/08/24 14:06:55;;;;;;;1.70;1.30;;;;;;;;;;4898652;29;20530;-67
2022/08/24 14:09:21;;;;;;;1.77;1.30;;;;;;;;;;4934019;29;20043;-67
2022/08/24 14:12:02;;;;;;;1.85;1.10;;;;;;;;;;4934120;29;20059;-67
2022/08/24 14:14:51;;;;;;;2.15;1.20;;;;;;;;;;4894998;29;20051;-67
2022/08/24 14:17:52;;;;;;;0.90;0.90;;;;;;;;;;4930541;29;20047;-67
2022/08/24 14:20:48;;;;;;;2.60;1.10;;;;;;;;;;4930805;29;20067;-67
2022/08/24 14:23:27;;;;;;;2.40;1.33;;;;;;;;;;4953802;23;20047;-65
2022/08/24 14:26:31;;;;;;;1.13;1.00;;;;;;;;;;4952955;28;20054;-68
2022/08/24 14:29:19;;;;;;;1.33;1.20;;;;;;;;;;4971982;28;20054;-67
2022/08/24 14:31:51;;;;;;;1.75;1.23;;;;;;;;;;4972036;28;20082;-67
2022/08/24 14:34:50;;;;;;;1.38;1.20;;;;;;;;;;4954431;28;20053;-68
2022/08/24 14:37:20;;;;;;;1.40;1.25;;;;;;;;;;4963973;28;20051;-68
2022/08/24 14:40:11;;;;;;;2.20;1.50;;;;;;;;;;4971516;28;20102;-68
2022/08/24 14:42:51;;;;;;;2.10;1.40;;;;;;;;;;4970332;28;20051;-67
2022/08/24 14:45:30;;;;;;;1.45;1.30;;;;;;;;;;4971541;28;20423;-68
2022/08/24 14:48:06;;;;;;;1.63;1.52;;;;;;;;;;4956357;28;20055;-68
2022/08/24 14:50:54;;;;;;;3.78;2.00;;;;;;;;;;4955216;28;20425;-68
2022/08/24 14:53:42;;;;;;;13.57;5.15;;;;;;;;;;4936318;28;20062;-67
2022/08/24 14:56:41;;;;;;;1.85;1.75;;;;;;;;;;4969034;28;20053;-67
2022/08/24 14:59:21;;;;;;;2.92;1.80;;;;;;;;;;4963981;28;20042;-68
2022/08/24 15:01:50;;;;;;;1.70;1.60;;;;;;;;;;4956156;28;20053;-68
2022/08/24 15:04:38;;;;;;;2.83;1.63;;;;;;;;;;4952015;28;20054;-66
2022/08/24 15:07:28;;;;;;;1.27;1.23;;;;;;;;;;4953924;28;20390;-66
2022/08/24 15:09:57;;;;;;;2.13;1.48;;;;;;;;;;4957295;28;20058;-68
2022/08/24 15:12:50;;;;;;;1.67;1.30;;;;;;;;;;4971837;28;20056;-68
2022/08/24 15:15:30;;;;;;;6.70;1.77;;;;;;;;;;4953895;28;20047;-66
2022/08/24 15:18:20;;;;;;;2.72;1.40;;;;;;;;;;4954334;28;20080;-68
2022/08/24 15:21:05;;;;;;;2.63;1.92;;;;;;;;;;4954524;28;20046;-67
2022/08/24 15:23:58;;;;;;;5.00;1.40;;;;;;;;;;4971860;28;20062;-68
2022/08/24 15:26:27;;;;;;;;;;;;;;;;;;4956372;28;20050;-68
2022/08/24 15:28:54;;;;;;;2.38;1.48;;;;;;;;;;4972794;28;19922;-68
2022/08/24 15:31:25;;;;;;;1.30;1.20;;;;;;;;;;4972832;28;20113;-68
2022/08/24 15:33:56;;;;;;;2.67;1.60;;;;;;;;;;4973118;28;20089;-67
2022/08/24 15:36:23;;;;;;;1.77;1.67;;;;;;;;;;4972775;28;20047;-67
2022/08/24 15:38:51;;;;;;;4.40;2.33;;;;;;;;;;4972388;28;20054;-68